createdAt,value
2023-03-16T00:00:49.987Z,2.30
2023-03-16T00:03:20.942Z,2.30
2023-03-16T00:05:50.892Z,2.20
2023-03-16T00:08:19.458Z,2.20
2023-03-16T00:10:48.088Z,2.20
2023-03-16T00:13:17.620Z,2.20
2023-03-16T00:15:55.750Z,2.20
2023-03-16T00:18:27.415Z,2.20
2023-03-16T00:21:02.222Z,2.20
2023-03-16T00:23:30.153Z,2.20
2023-03-16T00:26:00.040Z,2.10
2023-03-16T00:28:30.072Z,2.00
2023-03-16T00:30:59.157Z,2.00
2023-03-16T00:33:27.534Z,2.00
2023-03-16T00:36:02.609Z,2.00
2023-03-16T00:38:34.772Z,2.00
2023-03-16T00:41:08.083Z,2.60
2023-03-16T00:43:40.878Z,1.90
2023-03-16T00:46:11.483Z,2.00
2023-03-16T00:48:42.549Z,2.00
2023-03-16T00:51:13.199Z,2.50
2023-03-16T00:53:43.239Z,2.00
2023-03-16T00:56:11.896Z,2.10
2023-03-16T00:58:42.998Z,2.00
2023-03-16T01:01:13.968Z,2.00
2023-03-16T01:03:41.933Z,2.00
2023-03-16T01:06:15.221Z,2.00
2023-03-16T01:08:43.936Z,2.00
2023-03-16T01:11:16.404Z,2.00
2023-03-16T01:13:44.757Z,2.00
2023-03-16T01:16:12.884Z,2.00
2023-03-16T01:18:41.481Z,1.90
2023-03-16T01:21:10.318Z,1.90
2023-03-16T01:23:37.961Z,1.90
2023-03-16T01:26:06.148Z,1.90
2023-03-16T01:28:34.627Z,1.90
2023-03-16T01:31:06.534Z,1.90
2023-03-16T01:33:34.883Z,1.90
2023-03-16T01:36:06.935Z,1.90
2023-03-16T01:38:34.722Z,1.90
2023-03-16T01:41:03.701Z,1.80
2023-03-16T01:43:34.402Z,1.80
2023-03-16T01:46:05.251Z,1.80
2023-03-16T01:48:51.635Z,1.80
2023-03-16T01:51:43.804Z,1.80
2023-03-16T01:54:26.547Z,1.80
2023-03-16T01:57:07.938Z,1.90
2023-03-16T01:59:43.246Z,1.90
2023-03-16T02:02:13.570Z,1.80
2023-03-16T02:04:46.989Z,1.80
2023-03-16T02:07:17.163Z,1.90
2023-03-16T02:09:48.464Z,1.90
2023-03-16T02:12:18.441Z,1.90
2023-03-16T02:14:50.359Z,2.00
2023-03-16T02:17:21.968Z,2.00
2023-03-16T02:20:08.924Z,2.00
2023-03-16T02:22:42.775Z,2.00
2023-03-16T02:25:11.602Z,2.10
2023-03-16T02:28:15.680Z,2.10
2023-03-16T02:30:43.656Z,2.00
2023-03-16T02:33:12.270Z,2.00
2023-03-16T02:35:39.979Z,2.00
2023-03-16T02:38:07.627Z,2.40
2023-03-16T02:40:36.187Z,2.10
2023-03-16T02:43:10.814Z,2.10
2023-03-16T02:45:55.312Z,2.20
2023-03-16T02:48:35.192Z,2.20
2023-03-16T02:51:02.896Z,2.20
2023-03-16T02:53:31.059Z,2.20
2023-03-16T02:55:58.704Z,2.20
2023-03-16T02:58:26.305Z,2.20
2023-03-16T03:00:53.899Z,2.20
2023-03-16T03:03:21.725Z,2.20
2023-03-16T03:05:49.749Z,2.20
2023-03-16T03:08:20.254Z,2.20
2023-03-16T03:10:47.868Z,2.20
2023-03-16T03:13:15.468Z,2.20
2023-03-16T03:15:43.249Z,2.20
2023-03-16T03:18:11.176Z,2.10
2023-03-16T03:20:38.769Z,2.10
2023-03-16T03:23:06.586Z,2.00
2023-03-16T03:25:34.974Z,2.00
2023-03-16T03:28:05.603Z,1.90
2023-03-16T03:30:33.357Z,1.90
2023-03-16T03:33:01.575Z,1.90
2023-03-16T03:35:29.269Z,1.90
2023-03-16T03:37:56.999Z,1.90
2023-03-16T03:40:24.815Z,1.90
2023-03-16T03:42:52.472Z,1.90
2023-03-16T03:45:20.642Z,1.90
2023-03-16T03:47:48.203Z,1.80
2023-03-16T03:50:15.945Z,1.80
2023-03-16T03:52:43.645Z,1.80
2023-03-16T03:55:11.217Z,1.80
2023-03-16T03:57:39.255Z,1.80
2023-03-16T04:00:09.585Z,1.80
2023-03-16T04:02:38.708Z,1.90
2023-03-16T04:05:07.248Z,1.90
2023-03-16T04:07:34.980Z,1.80
2023-03-16T04:10:02.626Z,1.90
2023-03-16T04:12:30.256Z,2.00
2023-03-16T04:14:58.032Z,1.90
2023-03-16T04:17:25.911Z,1.90
2023-03-16T04:19:53.586Z,1.90
2023-03-16T04:22:23.370Z,1.90
2023-03-16T04:24:52.285Z,1.90
2023-03-16T04:27:19.978Z,2.00
2023-03-16T04:29:47.676Z,1.90
2023-03-16T04:32:15.302Z,1.90
2023-03-16T04:34:43.826Z,1.90
2023-03-16T04:37:11.837Z,1.90
2023-03-16T04:39:39.748Z,1.90
2023-03-16T04:42:07.416Z,2.00
2023-03-16T04:44:35.056Z,2.00
2023-03-16T04:47:02.710Z,1.90
2023-03-16T04:49:30.329Z,2.00
2023-03-16T04:51:57.979Z,1.90
2023-03-16T04:54:25.564Z,1.90
2023-03-16T04:56:53.195Z,1.90
2023-03-16T04:59:20.790Z,1.90
2023-03-16T05:01:48.684Z,1.90
2023-03-16T05:04:19.595Z,1.80
2023-03-16T05:06:47.573Z,1.90
2023-03-16T05:09:15.154Z,1.80
2023-03-16T05:11:42.762Z,1.80
2023-03-16T05:14:10.763Z,1.80
2023-03-16T05:16:38.337Z,1.80
2023-03-16T05:19:05.894Z,1.80
2023-03-16T05:21:34.244Z,1.80
2023-03-16T05:24:01.929Z,1.80
2023-03-16T05:26:29.625Z,1.80
2023-03-16T05:28:58.295Z,1.90
2023-03-16T05:31:32.615Z,1.90
2023-03-16T05:34:00.351Z,1.90
2023-03-16T05:36:28.046Z,1.90
2023-03-16T05:38:55.712Z,1.90
2023-03-16T05:41:23.925Z,2.00
2023-03-16T05:43:51.525Z,2.00
2023-03-16T05:46:20.932Z,2.00
2023-03-16T05:48:48.652Z,2.00
2023-03-16T05:51:17.006Z,2.00
2023-03-16T05:53:46.619Z,2.00
2023-03-16T05:56:14.256Z,2.10
2023-03-16T05:58:42.286Z,2.00
2023-03-16T06:01:11.176Z,2.10
2023-03-16T06:03:38.970Z,2.10
2023-03-16T06:06:06.674Z,2.10
2023-03-16T06:08:34.311Z,2.20
2023-03-16T06:11:02.246Z,2.30
2023-03-16T06:13:50.928Z,2.30
2023-03-16T06:16:18.617Z,2.40
2023-03-16T06:18:46.262Z,2.40
2023-03-16T06:21:15.149Z,2.40
2023-03-16T06:23:42.934Z,2.50
2023-03-16T06:26:10.761Z,2.50
2023-03-16T06:28:38.381Z,2.60
2023-03-16T06:31:06.178Z,2.60
2023-03-16T06:33:33.789Z,2.70
2023-03-16T06:36:01.838Z,2.80
2023-03-16T06:38:29.553Z,2.70
2023-03-16T06:40:57.132Z,2.80
2023-03-16T06:43:24.763Z,2.80
2023-03-16T06:45:52.583Z,2.90
2023-03-16T06:48:20.206Z,2.90
2023-03-16T06:50:47.840Z,3.00
2023-03-16T06:53:15.460Z,3.00
2023-03-16T06:55:43.209Z,3.10
2023-03-16T06:58:11.720Z,3.20
2023-03-16T07:00:39.504Z,3.30
2023-03-16T07:03:07.084Z,3.40
2023-03-16T07:05:34.717Z,3.60
2023-03-16T07:08:02.347Z,3.70
2023-03-16T07:10:30.400Z,3.70
2023-03-16T07:12:58.200Z,3.70
2023-03-16T07:15:26.693Z,3.70
2023-03-16T07:17:54.409Z,3.90
2023-03-16T07:20:23.639Z,4.00
2023-03-16T07:22:52.419Z,4.00
2023-03-16T07:25:20.505Z,4.10
2023-03-16T07:27:48.583Z,4.10
2023-03-16T07:30:16.273Z,4.10
2023-03-16T07:32:43.946Z,4.20
2023-03-16T07:35:11.845Z,4.20
2023-03-16T07:37:39.963Z,4.20
2023-03-16T07:40:09.208Z,4.40
2023-03-16T07:42:37.763Z,4.40
2023-03-16T07:45:06.642Z,4.50
2023-03-16T07:47:34.307Z,4.60
2023-03-16T07:50:02.065Z,4.70
2023-03-16T07:52:29.710Z,4.70
2023-03-16T07:54:57.303Z,5.00
2023-03-16T07:57:24.938Z,5.10
2023-03-16T07:59:52.541Z,5.40
2023-03-16T08:02:21.653Z,5.60
2023-03-16T08:04:49.357Z,5.70
2023-03-16T08:07:17.115Z,5.60
2023-03-16T08:09:44.759Z,5.60
2023-03-16T08:12:12.651Z,5.70
2023-03-16T08:14:40.341Z,5.80
2023-03-16T08:17:07.987Z,5.90
2023-03-16T08:19:35.651Z,6.20
2023-03-16T08:22:03.706Z,6.10
2023-03-16T08:24:32.558Z,6.20
2023-03-16T08:27:01.005Z,6.30
2023-03-16T08:29:28.611Z,6.40
2023-03-16T08:31:56.626Z,6.70
2023-03-16T08:34:25.025Z,6.90
2023-03-16T08:36:53.986Z,6.90
2023-03-16T08:39:21.762Z,7.00
2023-03-16T08:41:49.594Z,7.10
2023-03-16T08:44:17.577Z,7.10
2023-03-16T08:46:45.339Z,7.30
2023-03-16T08:49:14.417Z,7.50
2023-03-16T08:51:44.455Z,7.90
2023-03-16T08:54:12.720Z,8.20
2023-03-16T08:56:40.330Z,8.10
2023-03-16T08:59:16.823Z,8.20
2023-03-16T09:01:51.101Z,8.30
2023-03-16T09:04:18.794Z,8.30
2023-03-16T09:06:55.847Z,8.10
2023-03-16T09:09:31.093Z,8.00
2023-03-16T09:11:59.000Z,8.10
2023-03-16T09:14:26.724Z,8.10
2023-03-16T09:16:54.306Z,8.20
2023-03-16T09:19:22.903Z,8.10
2023-03-16T09:21:51.302Z,7.80
2023-03-16T09:24:19.225Z,7.90
2023-03-16T09:26:46.924Z,7.70
2023-03-16T09:29:15.082Z,7.80
2023-03-16T09:31:43.183Z,7.80
2023-03-16T09:34:11.790Z,7.70
2023-03-16T09:36:39.643Z,7.70
2023-03-16T09:39:07.571Z,7.80
2023-03-16T09:42:14.992Z,7.80
2023-03-16T09:44:54.624Z,8.40
2023-03-16T09:47:32.942Z,7.80
2023-03-16T09:50:04.455Z,8.00
2023-03-16T09:53:13.869Z,8.30
2023-03-16T09:56:29.900Z,8.40
2023-03-16T09:59:36.660Z,8.50
2023-03-16T10:03:00.622Z,8.60
2023-03-16T10:14:54.684Z,10.20
2023-03-16T10:18:00.210Z,10.40
2023-03-16T10:20:48.259Z,10.40
2023-03-16T10:23:22.851Z,10.30
2023-03-16T10:25:53.855Z,10.30
2023-03-16T10:28:27.346Z,10.50
2023-03-16T10:30:58.043Z,10.90
2023-03-16T10:33:33.776Z,11.00
2023-03-16T10:36:24.289Z,11.30
2023-03-16T10:39:00.029Z,11.70
2023-03-16T10:41:37.304Z,12.10
2023-03-16T10:44:23.441Z,11.90
2023-03-16T10:47:03.319Z,11.80
2023-03-16T10:52:48.439Z,11.70
2023-03-16T10:55:25.022Z,11.50
2023-03-16T10:57:57.933Z,11.60
2023-03-16T11:00:29.973Z,11.60
2023-03-16T11:03:01.839Z,11.50
2023-03-16T11:05:39.598Z,11.40
2023-03-16T11:08:20.290Z,11.20
2023-03-16T11:10:58.095Z,11.10
2023-03-16T11:13:34.324Z,11.30
2023-03-16T11:16:18.198Z,11.60
2023-03-16T11:18:54.312Z,11.60
2023-03-16T11:21:38.564Z,11.50
2023-03-16T11:24:20.242Z,11.50
2023-03-16T11:26:54.477Z,11.70
2023-03-16T11:32:36.105Z,12.70
2023-03-16T11:35:14.649Z,12.80
2023-03-16T11:42:19.349Z,13.40
2023-03-16T11:48:43.481Z,17.30
2023-03-16T11:51:25.664Z,18.90
2023-03-16T11:54:00.076Z,19.40
2023-03-16T11:56:31.142Z,20.00
2023-03-16T11:59:51.944Z,19.80
2023-03-16T12:02:46.001Z,19.70
2023-03-16T12:05:23.650Z,20.50
2023-03-16T12:08:18.956Z,20.70
2023-03-16T12:11:10.238Z,20.20
2023-03-16T12:14:00.353Z,19.10
2023-03-16T12:16:50.362Z,18.50
2023-03-16T12:19:25.645Z,19.00
2023-03-16T12:22:15.247Z,20.50
2023-03-16T12:24:45.496Z,21.70
2023-03-16T12:27:22.524Z,22.60
2023-03-16T12:30:06.221Z,23.10
2023-03-16T12:32:50.409Z,23.40
2023-03-16T12:35:48.494Z,24.00
2023-03-16T12:38:22.299Z,23.70
2023-03-16T12:41:18.132Z,23.90
2023-03-16T12:43:52.173Z,23.40
2023-03-16T12:46:38.559Z,23.20
2023-03-16T12:49:07.679Z,22.90
2023-03-16T12:51:41.482Z,24.10
2023-03-16T12:54:35.521Z,23.70
2023-03-16T12:57:08.082Z,23.10
2023-03-16T12:59:45.914Z,22.70
2023-03-16T13:02:26.521Z,22.90
2023-03-16T13:05:17.313Z,22.70
2023-03-16T13:08:03.693Z,22.10
2023-03-16T13:10:31.791Z,20.80
2023-03-16T13:13:18.591Z,20.80
2023-03-16T13:16:14.079Z,20.20
2023-03-16T13:18:45.218Z,19.90
2023-03-16T13:21:37.699Z,19.20
2023-03-16T13:24:18.797Z,19.20
2023-03-16T13:26:54.655Z,19.10
2023-03-16T13:29:32.195Z,18.80
2023-03-16T13:35:00.120Z,18.30
2023-03-16T13:37:29.986Z,17.90
2023-03-16T13:40:27.464Z,18.00
2023-03-16T13:42:59.029Z,18.40
2023-03-16T13:45:40.505Z,18.50
2023-03-16T13:48:17.314Z,18.50
2023-03-16T13:50:51.983Z,18.40
2023-03-16T13:53:31.055Z,18.40
2023-03-16T13:56:02.700Z,18.40
2023-03-16T13:58:37.908Z,18.00
2023-03-16T14:01:21.323Z,18.00
2023-03-16T14:03:53.581Z,18.30
2023-03-16T14:06:27.392Z,18.60
2023-03-16T14:09:14.403Z,18.40
2023-03-16T14:11:47.289Z,18.30
2023-03-16T14:14:17.698Z,18.30
2023-03-16T14:16:45.966Z,18.20
2023-03-16T14:19:34.391Z,18.10
2023-03-16T14:22:04.144Z,17.70
2023-03-16T14:24:35.349Z,17.70
2023-03-16T14:27:19.955Z,17.90
2023-03-16T14:29:59.019Z,17.90
2023-03-16T14:32:32.575Z,17.80
2023-03-16T14:35:13.286Z,17.90
2023-03-16T14:37:41.917Z,18.00
2023-03-16T14:40:30.978Z,18.10
2023-03-16T14:43:02.386Z,18.40
2023-03-16T14:45:34.019Z,18.80
2023-03-16T14:48:17.086Z,18.80
2023-03-16T14:50:44.764Z,19.00
2023-03-16T14:53:12.706Z,19.60
2023-03-16T14:55:40.505Z,20.20
2023-03-16T14:58:10.170Z,20.20
2023-03-16T15:00:51.887Z,20.10
2023-03-16T15:03:39.138Z,19.50
2023-03-16T15:06:37.803Z,19.00
2023-03-16T15:09:32.726Z,18.50
2023-03-16T15:12:16.652Z,17.60
2023-03-16T15:15:09.640Z,17.00
2023-03-16T15:17:49.060Z,16.50
2023-03-16T15:20:32.609Z,16.70
2023-03-16T15:23:01.762Z,17.00
2023-03-16T15:25:38.311Z,17.50
2023-03-16T15:28:17.886Z,18.00
2023-03-16T15:30:47.102Z,18.50
2023-03-16T15:33:15.330Z,18.90
2023-03-16T15:35:43.753Z,19.20
2023-03-16T15:38:18.823Z,19.00
2023-03-16T15:40:48.075Z,18.80
2023-03-16T15:43:18.281Z,18.40
2023-03-16T15:45:47.764Z,18.30
2023-03-16T15:48:21.667Z,18.10
2023-03-16T15:50:54.387Z,17.70
2023-03-16T15:53:31.037Z,17.40
2023-03-16T15:56:04.192Z,16.90
2023-03-16T15:58:34.029Z,16.20
2023-03-16T16:01:03.240Z,15.70
2023-03-16T16:03:31.517Z,15.40
2023-03-16T16:05:59.262Z,15.20
2023-03-16T16:08:27.353Z,14.90
2023-03-16T16:10:56.016Z,14.70
2023-03-16T16:13:43.511Z,14.60
2023-03-16T16:16:16.824Z,14.20
2023-03-16T16:18:46.598Z,14.00
2023-03-16T16:21:24.610Z,13.90
2023-03-16T16:23:53.047Z,13.60
2023-03-16T16:26:34.176Z,13.40
2023-03-16T16:29:24.181Z,13.30
2023-03-16T16:31:52.504Z,13.10
2023-03-16T16:34:24.523Z,13.10
2023-03-16T16:36:53.518Z,12.90
2023-03-16T16:39:21.934Z,12.90
2023-03-16T16:41:55.292Z,12.80
2023-03-16T16:44:27.044Z,12.70
2023-03-16T16:46:55.522Z,12.60
2023-03-16T16:49:26.466Z,12.50
2023-03-16T16:51:54.227Z,12.40
2023-03-16T16:54:32.449Z,12.30
2023-03-16T16:57:01.188Z,12.30
2023-03-16T16:59:36.820Z,12.20
2023-03-16T17:02:42.249Z,12.00
2023-03-16T17:05:20.011Z,11.90
2023-03-16T17:07:49.248Z,11.80
2023-03-16T17:10:22.777Z,11.70
2023-03-16T17:12:52.128Z,11.60
2023-03-16T17:15:26.366Z,11.50
2023-03-16T17:18:09.666Z,11.30
2023-03-16T17:20:38.840Z,11.20
2023-03-16T17:23:32.636Z,11.20
2023-03-16T17:26:13.174Z,11.00
2023-03-16T17:28:45.605Z,10.80
2023-03-16T17:31:19.968Z,10.80
2023-03-16T17:33:48.218Z,10.80
2023-03-16T17:36:16.901Z,10.70
2023-03-16T17:38:44.994Z,10.60
2023-03-16T17:41:33.915Z,10.50
2023-03-16T17:44:05.719Z,10.40
2023-03-16T17:46:33.766Z,10.30
2023-03-16T17:49:02.331Z,10.30
2023-03-16T17:51:33.862Z,10.40
2023-03-16T17:54:01.548Z,10.00
2023-03-16T17:56:31.950Z,10.00
2023-03-16T17:59:06.737Z,9.90
2023-03-16T18:01:37.760Z,9.80
2023-03-16T18:04:25.942Z,9.80
2023-03-16T18:06:54.724Z,9.70
2023-03-16T18:09:22.401Z,9.60
2023-03-16T18:11:51.569Z,9.60
2023-03-16T18:14:36.680Z,9.50
2023-03-16T18:17:14.436Z,9.50
2023-03-16T18:19:43.499Z,9.50
2023-03-16T18:22:19.542Z,9.50
2023-03-16T18:24:48.609Z,9.40
2023-03-16T18:27:16.557Z,9.40
2023-03-16T18:29:45.677Z,9.30
2023-03-16T18:32:25.257Z,9.20
2023-03-16T18:34:53.594Z,9.20
2023-03-16T18:37:24.056Z,9.20
2023-03-16T18:39:54.324Z,9.10
2023-03-16T18:42:25.883Z,9.10
2023-03-16T18:44:53.752Z,9.00
2023-03-16T18:47:26.806Z,9.00
2023-03-16T18:49:54.482Z,9.00
2023-03-16T18:52:25.009Z,8.90
2023-03-16T18:54:53.272Z,8.80
2023-03-16T18:57:25.363Z,8.80
2023-03-16T18:59:53.001Z,8.70
2023-03-16T19:02:37.398Z,8.70
2023-03-16T19:05:17.396Z,8.70
2023-03-16T19:07:47.353Z,8.60
2023-03-16T19:10:33.107Z,8.70
2023-03-16T19:13:01.257Z,8.60
2023-03-16T19:15:31.919Z,8.60
2023-03-16T19:18:00.269Z,8.50
2023-03-16T19:20:31.681Z,8.40
2023-03-16T19:23:19.651Z,8.40
2023-03-16T19:25:47.766Z,8.40
2023-03-16T19:28:34.170Z,8.30
2023-03-16T19:31:05.137Z,8.20
2023-03-16T19:33:32.831Z,8.20
2023-03-16T19:36:00.650Z,8.30
2023-03-16T19:38:28.492Z,8.30
2023-03-16T19:41:00.503Z,8.20
2023-03-16T19:43:28.870Z,8.00
2023-03-16T19:45:56.918Z,8.00
2023-03-16T19:48:34.283Z,7.90
2023-03-16T19:51:02.167Z,7.90
2023-03-16T19:53:30.310Z,7.80
2023-03-16T19:55:58.192Z,7.70
2023-03-16T19:58:29.295Z,7.70
2023-03-16T20:00:58.975Z,7.70
2023-03-16T20:03:27.600Z,7.70
2023-03-16T20:05:55.253Z,7.50
2023-03-16T20:08:28.776Z,7.50
2023-03-16T20:11:06.607Z,7.50
2023-03-16T20:13:35.408Z,7.50
2023-03-16T20:16:03.620Z,7.50
2023-03-16T20:18:31.335Z,7.40
2023-03-16T20:20:58.911Z,7.40
2023-03-16T20:23:28.365Z,7.40
2023-03-16T20:26:02.075Z,7.40
2023-03-16T20:28:38.087Z,7.30
2023-03-16T20:31:09.228Z,7.20
2023-03-16T20:33:36.959Z,7.20
2023-03-16T20:36:07.166Z,7.10
2023-03-16T20:38:34.956Z,7.10
2023-03-16T20:41:02.777Z,7.00
2023-03-16T20:43:32.738Z,7.00
2023-03-16T20:46:03.703Z,7.00
2023-03-16T20:48:32.276Z,7.00
2023-03-16T20:51:00.509Z,7.00
2023-03-16T20:53:28.715Z,7.10
2023-03-16T20:55:57.131Z,7.10
2023-03-16T20:58:28.203Z,7.20
2023-03-16T21:01:01.159Z,7.10
2023-03-16T21:03:31.190Z,7.10
2023-03-16T21:06:00.007Z,7.10
2023-03-16T21:08:27.943Z,7.10
2023-03-16T21:10:57.154Z,7.10
2023-03-16T21:13:33.234Z,7.20
2023-03-16T21:16:03.496Z,7.20
2023-03-16T21:18:31.335Z,7.30
2023-03-16T21:20:59.048Z,7.30
2023-03-16T21:23:26.668Z,7.20
2023-03-16T21:26:00.812Z,7.10
2023-03-16T21:28:31.576Z,7.10
2023-03-16T21:30:59.763Z,7.00
2023-03-16T21:33:35.418Z,6.90
2023-03-16T21:36:06.209Z,6.90
2023-03-16T21:38:34.702Z,6.80
2023-03-16T21:41:02.273Z,6.80
2023-03-16T21:43:31.167Z,6.90
2023-03-16T21:45:59.565Z,7.00
2023-03-16T21:48:36.339Z,6.80
2023-03-16T21:52:16.355Z,6.80
2023-03-16T21:54:44.127Z,6.70
2023-03-16T21:57:15.317Z,6.80
2023-03-16T21:59:42.964Z,6.60
2023-03-16T22:02:30.063Z,6.70
2023-03-16T22:04:58.333Z,6.60
2023-03-16T22:07:26.238Z,6.80
2023-03-16T22:09:53.925Z,6.80
2023-03-16T22:12:21.576Z,6.80
2023-03-16T22:14:49.594Z,6.80
2023-03-16T22:17:24.444Z,6.90
2023-03-16T22:19:53.073Z,6.90
2023-03-16T22:22:21.215Z,6.90
2023-03-16T22:24:52.964Z,6.90
2023-03-16T22:27:26.193Z,6.90
2023-03-16T22:29:53.868Z,6.80
2023-03-16T22:32:22.861Z,6.80
2023-03-16T22:34:56.533Z,6.90
2023-03-16T22:37:29.105Z,6.90
2023-03-16T22:39:58.504Z,6.90
2023-03-16T22:42:37.120Z,6.90
2023-03-16T22:45:19.015Z,6.90
2023-03-16T22:47:47.728Z,7.00
2023-03-16T22:50:20.526Z,7.00
2023-03-16T22:52:51.226Z,6.90
2023-03-16T22:55:26.215Z,6.90
2023-03-16T22:58:20.554Z,6.90
2023-03-16T23:00:48.401Z,6.90
2023-03-16T23:03:18.686Z,6.90
2023-03-16T23:05:47.397Z,6.90
2023-03-16T23:08:19.968Z,6.90
2023-03-16T23:10:49.133Z,7.00
2023-03-16T23:13:20.074Z,6.90
2023-03-16T23:15:49.339Z,6.90
2023-03-16T23:18:27.212Z,6.90
2023-03-16T23:20:54.879Z,6.80
2023-03-16T23:23:22.546Z,6.80
2023-03-16T23:25:50.458Z,6.80
2023-03-16T23:28:23.065Z,6.80
2023-03-16T23:30:51.008Z,6.80
2023-03-16T23:33:18.753Z,6.80
2023-03-16T23:35:46.900Z,6.70
2023-03-16T23:38:14.814Z,6.80
2023-03-16T23:40:42.480Z,6.80
2023-03-16T23:43:10.130Z,6.80
2023-03-16T23:45:42.847Z,6.70
2023-03-16T23:48:21.489Z,6.80
2023-03-16T23:50:53.435Z,6.70
2023-03-16T23:53:24.340Z,6.70
2023-03-16T23:55:55.098Z,6.70
2023-03-16T23:58:22.800Z,6.70
